< < Back
Terminal Aerodrome Forecast


Current Version              Previous Versions:   1  2  3  4  5  6  7  8  9  

Terminal Aerodrome Forecast

131
FTUS42 KMLB 281100
TAFDAB
TAF
KDAB 281128Z 2812/2912 32009KT P6SM SKC
     FM281800 02013KT P6SM FEW035
     FM290000 36006KT P6SM SKC=



Latest METAR

026
SAUS80 KWBC 290200 RRA
MTRDAB
METAR KDAB 290153Z 31007KT 10SM FEW033 09/06 A3031 RMK AO2 SLP261
T00890056


USA.gov is the U.S. government's official web portal to all federal, state and local government web resources and services.